Time;durP1;ratioP1;P1;durP2;ratioP2;P2;SDS_P1;SDS_P2;PMS_P1;PMS_P2;Temp;Humidity;BMP_temperature;BMP_pressure;BME280_temperature;BME280_humidity;BME280_pressure;Samples;Min_cycle;Max_cycle;Signal;HPM_P1;HPM_P2
2022/01/08 00:01:33;;;;;;;23.00;10.48;;;;;;;-0.10;62.18;100071.69;2060934;86;27618;-61
2022/01/08 00:04:35;;;;;;;30.20;11.93;;;;;;;-0.06;62.23;100076.48;2061363;86;29020;-65
2022/01/08 00:07:37;;;;;;;21.30;10.50;;;;;;;-0.06;62.16;100070.75;2061102;86;32168;-64
2022/01/08 00:10:40;;;;;;;21.15;10.55;;;;;;;-0.04;62.13;100068.98;2061051;86;33924;-66
2022/01/08 00:13:42;;;;;;;22.20;11.73;;;;;;;-0.01;62.21;100066.78;2060981;86;30151;-63
2022/01/08 00:16:44;;;;;;;26.17;12.53;;;;;;;0.03;62.27;100064.98;2093523;83;27655;-66
2022/01/08 00:19:46;;;;;;;25.08;11.70;;;;;;;0.04;62.08;100067.59;2095679;85;29085;-62
2022/01/08 00:22:51;;;;;;;25.00;11.43;;;;;;;0.07;62.12;100064.07;2095574;85;31065;-65
2022/01/08 00:25:51;;;;;;;19.48;9.98;;;;;;;0.08;62.24;100061.87;2095274;84;33123;-64
2022/01/08 00:28:53;;;;;;;26.85;11.08;;;;;;;0.12;62.26;100074.09;2094253;85;29322;-63
2022/01/08 00:31:55;;;;;;;23.67;11.48;;;;;;;0.13;62.20;100078.05;2095500;84;27707;-64
2022/01/08 00:34:57;;;;;;;42.23;16.30;;;;;;;0.16;62.27;100071.00;2095486;84;30023;-64
2022/01/08 00:37:59;;;;;;;21.73;9.90;;;;;;;0.19;62.25;100067.88;2098010;84;30954;-65
2022/01/08 00:41:00;;;;;;;26.30;12.82;;;;;;;0.22;62.30;100070.92;2106116;84;33373;-63
2022/01/08 00:44:03;;;;;;;40.30;19.02;;;;;;;0.25;62.38;100069.11;2106769;84;29703;-66
2022/01/08 00:47:05;;;;;;;24.70;12.05;;;;;;;0.28;62.52;100065.13;2106793;83;27629;-65
2022/01/08 00:50:08;;;;;;;20.52;11.25;;;;;;;0.31;62.58;100064.25;2107031;84;29377;-65
2022/01/08 00:53:10;;;;;;;23.20;10.93;;;;;;;0.34;62.55;100063.33;2106385;84;31258;-66
2022/01/08 00:56:14;;;;;;;28.35;16.62;;;;;;;0.37;62.79;100063.30;2106751;84;34175;-68
2022/01/08 00:59:15;;;;;;;25.25;12.15;;;;;;;0.39;62.99;100066.79;2106772;84;29499;-68
2022/01/08 01:02:20;;;;;;;19.85;10.68;;;;;;;0.40;63.15;100069.86;2106885;84;27541;-67
2022/01/08 01:05:22;;;;;;;19.12;10.15;;;;;;;0.41;63.55;100056.65;2106419;84;29915;-65
2022/01/08 01:08:24;;;;;;;23.15;11.15;;;;;;;0.40;63.99;100051.41;2106763;84;31869;-65
2022/01/08 01:11:26;;;;;;;21.60;10.55;;;;;;;0.38;64.12;100050.09;2106391;84;33800;-65
2022/01/08 01:14:28;;;;;;;20.60;11.30;;;;;;;0.35;64.36;100045.31;2106777;84;29085;-63
2022/01/08 01:17:30;;;;;;;22.35;11.68;;;;;;;0.32;64.60;100040.08;2106738;83;27686;-68
2022/01/08 01:20:32;;;;;;;22.67;10.95;;;;;;;0.32;64.79;100040.08;2105956;84;29251;-68
2022/01/08 01:23:39;;;;;;;22.35;10.82;;;;;;;0.30;64.91;100038.78;2106875;84;31404;-62
2022/01/08 01:26:42;;;;;;;25.72;13.95;;;;;;;0.29;64.83;100031.31;2106303;84;33374;-65
2022/01/08 01:30:03;;;;;;;22.02;11.85;;;;;;;0.28;64.93;100032.66;2106503;83;29392;-68
2022/01/08 01:43:24;;;;;;;18.02;10.25;;;;;;;0.28;65.24;100030.03;2125066;83;33500;-71
2022/01/08 01:49:32;;;;;;;28.80;14.15;;;;;;;0.27;65.31;100020.37;2106393;83;27610;-69
2022/01/08 01:52:35;;;;;;;18.48;10.93;;;;;;;0.29;65.41;100024.72;2099382;83;28650;-68
2022/01/08 01:55:37;;;;;;;22.35;10.75;;;;;;;0.32;65.36;100013.73;2099096;83;31934;-68
2022/01/08 01:58:38;;;;;;;24.63;11.57;;;;;;;0.33;65.35;100008.88;2100949;84;34106;-70
2022/01/08 02:01:40;;;;;;;28.42;11.68;;;;;;;0.34;65.42;100010.63;2100769;83;29312;-63
2022/01/08 02:04:42;;;;;;;20.55;10.18;;;;;;;0.31;65.38;100002.33;2119792;83;27707;-68
2022/01/08 02:07:44;;;;;;;18.60;10.43;;;;;;;0.29;65.37;99989.16;2137328;83;29934;-66
2022/01/08 02:10:47;;;;;;;24.63;14.58;;;;;;;0.28;65.41;99987.41;2137748;83;31394;-67
2022/01/08 02:13:49;;;;;;;22.32;12.55;;;;;;;0.28;65.54;99985.23;2104900;83;34083;-64
2022/01/08 02:16:51;;;;;;;19.60;10.25;;;;;;;0.30;65.68;99984.31;2098117;84;30186;-63
2022/01/08 02:19:55;;;;;;;19.95;10.65;;;;;;;0.34;65.74;99986.45;2099522;83;27568;-63
2022/01/08 02:22:56;;;;;;;16.93;9.23;;;;;;;0.35;65.76;99986.88;2098268;84;29494;-64
2022/01/08 02:26:06;;;;;;;17.82;9.25;;;;;;;0.34;65.84;99979.88;2099191;83;32193;-63
2022/01/08 02:29:14;;;;;;;21.60;9.53;;;;;;;0.35;65.90;99983.39;2099220;83;32811;-66
2022/01/08 02:32:19;;;;;;;18.92;9.45;;;;;;;0.36;65.94;99983.36;2096303;83;30510;-63
2022/01/08 02:35:22;;;;;;;17.00;10.60;;;;;;;0.38;65.87;99984.67;2102084;83;27639;-64
2022/01/08 02:38:24;;;;;;;17.75;8.98;;;;;;;0.39;65.92;99985.96;2099819;84;28763;-62
2022/01/08 02:41:27;;;;;;;15.15;9.10;;;;;;;0.37;65.87;99976.34;2095745;84;31074;-66
2022/01/08 02:44:29;;;;;;;19.15;9.78;;;;;;;0.38;65.94;99983.36;2096495;84;33843;-67
2022/01/08 02:47:31;;;;;;;14.43;8.53;;;;;;;0.39;65.93;99982.01;2096908;84;30257;-64
2022/01/08 02:50:34;;;;;;;16.35;8.63;;;;;;;0.38;65.86;99975.45;2096863;84;27270;-71
2022/01/08 02:53:36;;;;;;;15.50;9.00;;;;;;;0.37;65.82;99975.88;2096618;84;28681;-72
2022/01/08 02:56:45;;;;;;;16.17;9.18;;;;;;;0.37;65.84;99972.39;2096955;84;31205;-70
2022/01/08 02:59:47;;;;;;;19.50;9.28;;;;;;;0.37;65.85;99957.44;2096765;84;32990;-65
2022/01/08 03:02:52;;;;;;;14.25;9.10;;;;;;;0.39;65.82;99950.85;2096482;84;28757;-64
2022/01/08 03:05:53;;;;;;;14.83;9.20;;;;;;;0.42;66.04;99953.41;2097012;84;27649;-63
2022/01/08 03:08:57;;;;;;;15.00;8.70;;;;;;;0.46;65.83;99968.30;2096801;83;28738;-68
2022/01/08 03:11:58;;;;;;;16.12;8.68;;;;;;;0.44;65.80;99968.77;2076863;85;32116;-68
2022/01/08 03:15:00;;;;;;;17.48;9.20;;;;;;;0.44;65.78;99964.38;2077632;85;33731;-67
2022/01/08 03:18:04;;;;;;;18.32;9.53;;;;;;;0.47;65.87;99957.33;2077602;85;29352;-67
2022/01/08 03:21:16;;;;;;;16.45;8.35;;;;;;;0.51;65.97;99958.58;2096618;84;27812;-68
2022/01/08 03:24:24;;;;;;;14.10;8.60;;;;;;;0.52;65.88;99958.12;2095981;84;29101;-71
2022/01/08 03:27:19;;;;;;;14.85;8.08;;;;;;;0.53;65.86;99959.86;2094897;84;32357;-69
2022/01/08 03:30:21;;;;;;;18.27;9.40;;;;;;;0.56;65.84;99953.23;2095762;84;33089;-71
2022/01/08 03:33:23;;;;;;;15.55;8.80;;;;;;;0.57;65.78;99955.87;2096703;83;30109;-71
2022/01/08 03:36:25;;;;;;;14.65;8.60;;;;;;;0.59;65.84;99950.56;2096589;83;27697;-70
2022/01/08 03:39:27;;;;;;;16.27;8.75;;;;;;;0.62;65.79;99944.36;2097140;84;29471;-63
2022/01/08 03:42:28;;;;;;;13.83;8.08;;;;;;;0.64;65.88;99947.42;2096490;84;31077;-67
2022/01/08 03:45:30;;;;;;;15.32;8.50;;;;;;;0.66;65.87;99935.52;2097304;83;32941;-64
2022/01/08 03:48:45;;;;;;;17.57;9.05;;;;;;;0.69;65.78;99933.70;2102617;83;30112;-69
2022/01/08 03:51:37;;;;;;;18.05;8.95;;;;;;;0.70;65.78;99931.95;2111029;83;27734;-64
2022/01/08 03:54:40;;;;;;;18.35;8.85;;;;;;;0.72;65.82;99931.49;2096764;84;28717;-63
2022/01/08 03:57:41;;;;;;;15.53;8.80;;;;;;;0.73;65.73;99926.18;2097282;83;30958;-68
2022/01/08 04:00:43;;;;;;;14.85;8.95;;;;;;;0.72;65.68;99923.12;2096052;84;33082;-70
2022/01/08 04:03:45;;;;;;;15.50;9.55;;;;;;;0.72;65.77;99924.44;2097628;83;30450;-69
2022/01/08 04:06:47;;;;;;;17.50;9.55;;;;;;;0.74;65.78;99917.84;2097347;84;27697;-70
2022/01/08 04:09:49;;;;;;;19.82;10.82;;;;;;;0.74;65.72;99913.42;2097086;84;29840;-70
2022/01/08 04:12:56;;;;;;;18.77;10.58;;;;;;;0.75;65.78;99916.92;2097196;84;32198;-69
2022/01/08 04:16:01;;;;;;;17.23;9.78;;;;;;;0.75;65.80;99906.38;2071607;85;33008;-72
2022/01/08 04:18:59;;;;;;;16.30;9.78;;;;;;;0.77;65.81;99911.17;2060041;86;29325;-71
2022/01/08 04:22:10;;;;;;;13.45;8.40;;;;;;;0.80;65.89;99908.50;2022334;86;27732;-69
2022/01/08 04:25:05;;;;;;;13.55;8.35;;;;;;;0.83;65.89;99904.50;2057005;86;28752;-70
2022/01/08 04:28:07;;;;;;;14.68;8.90;;;;;;;0.82;65.83;99901.90;2058021;86;31037;-73
2022/01/08 04:31:08;;;;;;;17.90;9.28;;;;;;;0.82;65.87;99908.03;2058125;86;33754;-71
2022/01/08 04:34:10;;;;;;;19.10;9.93;;;;;;;0.82;65.79;99910.66;2057600;86;30277;-71
2022/01/08 04:37:12;;;;;;;18.40;9.63;;;;;;;0.82;65.84;99915.08;2068276;86;28286;-72
2022/01/08 04:40:13;;;;;;;18.25;10.05;;;;;;;0.82;65.87;99908.49;2100331;84;29509;-71
2022/01/08 04:43:15;;;;;;;18.85;11.08;;;;;;;0.81;65.92;99908.06;2103458;84;31057;-70
2022/01/08 04:46:17;;;;;;;20.10;10.55;;;;;;;0.79;65.88;99897.98;2103715;84;33836;-70
2022/01/08 04:49:19;;;;;;;18.40;10.78;;;;;;;0.78;66.04;99904.16;2103366;84;29314;-72
2022/01/08 04:52:20;;;;;;;25.68;11.55;;;;;;;0.79;66.09;99902.80;2103473;84;27805;-65
2022/01/08 04:55:22;;;;;;;23.98;11.95;;;;;;;0.81;66.23;99909.39;2103983;83;28890;-68
2022/01/08 04:58:24;;;;;;;21.23;10.65;;;;;;;0.83;66.31;99907.14;2121837;83;31195;-66
2022/01/08 05:01:26;;;;;;;19.32;9.83;;;;;;;0.86;66.31;99912.37;2102023;84;34027;-71
2022/01/08 05:04:28;;;;;;;19.35;11.30;;;;;;;0.88;66.30;99911.90;2103330;83;29317;-66
2022/01/08 05:07:29;;;;;;;18.73;11.00;;;;;;;0.90;66.42;99917.13;2102122;83;28318;-68
2022/01/08 05:10:33;;;;;;;20.05;11.22;;;;;;;0.92;66.56;99915.34;2102837;84;28632;-68
2022/01/08 05:13:34;;;;;;;17.05;10.35;;;;;;;0.94;66.55;99910.03;2102572;83;32650;-67
2022/01/08 05:16:36;;;;;;;18.25;10.25;;;;;;;0.97;66.45;99914.83;2070310;84;32787;-65
2022/01/08 05:19:50;;;;;;;20.90;10.30;;;;;;;0.98;66.40;99906.45;2103108;83;29688;-66
2022/01/08 05:22:53;;;;;;;21.75;10.98;;;;;;;0.99;66.46;99901.61;2102581;84;27765;-69
2022/01/08 05:25:54;;;;;;;16.70;8.70;;;;;;;0.98;66.41;99906.03;2102197;84;29149;-66
2022/01/08 05:28:56;;;;;;;15.40;9.30;;;;;;;0.99;66.24;99905.56;2102806;83;31870;-69
2022/01/08 05:31:58;;;;;;;14.40;9.58;;;;;;;0.99;66.36;99903.81;2103366;82;33751;-62
2022/01/08 05:35:01;;;;;;;17.82;10.08;;;;;;;1.01;66.46;99898.50;2102800;84;29690;-68
2022/01/08 05:38:03;;;;;;;22.45;10.08;;;;;;;1.01;66.32;99895.86;2102944;84;27594;-62
2022/01/08 05:41:04;;;;;;;18.00;9.68;;;;;;;1.00;66.27;99887.52;2100386;84;29037;-62
2022/01/08 05:44:06;;;;;;;15.85;9.98;;;;;;;1.01;66.53;99892.77;2097321;84;31108;-67
2022/01/08 05:47:08;;;;;;;15.28;8.70;;;;;;;1.02;66.49;99896.29;2096960;84;34188;-70
2022/01/08 05:50:11;;;;;;;15.68;9.83;;;;;;;1.04;66.64;99898.45;2097225;84;29329;-63
2022/01/08 05:53:12;;;;;;;16.32;9.80;;;;;;;1.06;66.62;99893.56;2097564;84;28225;-63
2022/01/08 05:56:14;;;;;;;19.70;9.78;;;;;;;1.05;66.58;99898.41;2096803;84;30068;-61
2022/01/08 05:59:16;;;;;;;16.80;9.38;;;;;;;1.06;66.52;99897.98;2096825;83;31474;-63
2022/01/08 06:02:19;;;;;;;18.15;10.35;;;;;;;1.09;66.69;99895.73;2062372;86;34199;-64
2022/01/08 06:05:21;;;;;;;20.00;10.43;;;;;;;1.10;66.70;99903.61;2061999;86;29325;-63
2022/01/08 06:08:23;;;;;;;18.42;10.60;;;;;;;1.10;66.64;99896.16;2063302;86;27703;-62
2022/01/08 06:11:24;;;;;;;21.62;11.10;;;;;;;1.10;66.59;99897.01;2062997;86;29484;-64
2022/01/08 06:14:26;;;;;;;27.05;11.97;;;;;;;1.11;66.58;99893.94;2062872;86;31067;-64
2022/01/08 06:17:28;;;;;;;22.07;11.25;;;;;;;1.10;66.49;99897.01;2062938;85;34100;-67
2022/01/08 06:20:30;;;;;;;23.65;12.28;;;;;;;1.10;66.64;99890.88;2062942;86;29705;-61
2022/01/08 06:23:32;;;;;;;26.75;12.85;;;;;;;1.11;66.68;99894.80;2065616;83;27684;-71
2022/01/08 06:26:34;;;;;;;31.07;13.93;;;;;;;1.13;66.66;99898.75;2096766;84;29951;-65
2022/01/08 06:29:36;;;;;;;26.57;13.03;;;;;;;1.13;66.72;99902.23;2097356;83;31055;-69
2022/01/08 06:32:37;;;;;;;18.92;11.95;;;;;;;1.14;66.67;99909.72;2096615;83;33927;-66
2022/01/08 06:35:39;;;;;;;21.97;12.50;;;;;;;1.14;66.69;99915.00;2097410;84;29671;-63
2022/01/08 06:38:41;;;;;;;21.50;12.45;;;;;;;1.17;66.90;99920.20;2097380;84;27676;-61
2022/01/08 06:41:43;;;;;;;21.87;12.10;;;;;;;1.16;66.75;99929.89;2122393;83;29870;-62
2022/01/08 06:44:45;;;;;;;29.05;13.48;;;;;;;1.16;66.87;99924.62;2113392;83;31072;-70
2022/01/08 06:47:47;;;;;;;23.92;13.03;;;;;;;1.17;66.83;99918.88;2094151;83;34153;-65
2022/01/08 06:50:49;;;;;;;24.40;13.03;;;;;;;1.17;66.90;99923.72;2095119;85;30508;-70
2022/01/08 06:53:50;;;;;;;22.55;13.25;;;;;;;1.20;67.00;99919.72;2095865;83;27665;-67
2022/01/08 06:56:52;;;;;;;22.52;12.65;;;;;;;1.20;66.95;99913.12;2099251;83;29250;-65
2022/01/08 06:59:54;;;;;;;21.62;12.13;;;;;;;1.19;66.87;99922.36;2117353;83;32213;-62
2022/01/08 07:02:56;;;;;;;21.82;13.20;;;;;;;1.21;66.97;99919.25;2064109;85;34107;-62
2022/01/08 07:05:58;;;;;;;20.30;12.75;;;;;;;1.24;67.05;99922.31;2091913;83;30528;-63
2022/01/08 07:08:59;;;;;;;19.17;12.55;;;;;;;1.24;67.04;99917.89;2099267;83;27716;-63
2022/01/08 07:12:01;;;;;;;21.33;13.43;;;;;;;1.24;67.03;99921.84;2131405;83;28807;-62
2022/01/08 07:15:05;;;;;;;24.02;13.58;;;;;;;1.25;67.12;99931.50;2131159;83;31428;-67
2022/01/08 07:18:07;;;;;;;16.87;9.80;;;;;;;1.28;67.26;99934.09;2131363;83;33740;-66
2022/01/08 07:21:09;;;;;;;20.43;13.32;;;;;;;1.29;67.32;99927.03;2106909;83;29160;-65
2022/01/08 07:24:11;;;;;;;23.38;13.13;;;;;;;1.35;67.24;99937.03;2095114;83;27607;-69
2022/01/08 07:27:13;;;;;;;24.37;13.75;;;;;;;1.40;67.34;99939.61;2082275;83;28648;-70
2022/01/08 07:30:14;;;;;;;25.12;13.35;;;;;;;1.43;67.23;99943.48;2094009;83;31486;-73
2022/01/08 07:33:16;;;;;;;21.02;13.20;;;;;;;1.44;67.12;99946.55;2094972;83;32912;-71
2022/01/08 07:36:18;;;;;;;22.20;13.83;;;;;;;1.47;67.23;99941.69;2091706;83;30435;-70
2022/01/08 07:39:20;;;;;;;23.02;14.28;;;;;;;1.47;67.19;99933.30;2092853;83;27963;-64
2022/01/08 07:42:21;;;;;;;25.30;13.25;;;;;;;1.50;67.31;99929.73;2099486;83;28137;-68
2022/01/08 07:45:23;;;;;;;23.32;13.22;;;;;;;1.51;67.14;99941.59;2105603;83;32315;-66
2022/01/08 07:48:26;;;;;;;23.22;13.58;;;;;;;1.51;67.22;99940.71;2103851;83;33101;-63
2022/01/08 07:51:28;;;;;;;23.38;13.90;;;;;;;1.53;67.26;99942.02;2104880;83;29978;-69
2022/01/08 07:54:30;;;;;;;24.40;13.22;;;;;;;1.56;67.37;99939.33;2105885;83;27635;-67
2022/01/08 07:57:32;;;;;;;21.40;12.93;;;;;;;1.53;67.15;99940.23;2102629;83;29899;-64
2022/01/08 08:00:33;;;;;;;22.85;13.18;;;;;;;1.54;67.33;99947.27;2102754;83;31079;-70
2022/01/08 08:03:35;;;;;;;22.40;12.78;;;;;;;1.57;67.39;99950.31;2101743;83;34193;-72
2022/01/08 08:06:47;;;;;;;22.42;13.53;;;;;;;1.59;67.44;99938.81;2106549;83;30074;-69
2022/01/08 08:09:48;;;;;;;26.12;14.65;;;;;;;1.63;67.33;99943.58;2106363;83;27678;-68
2022/01/08 08:12:51;;;;;;;26.40;13.93;;;;;;;1.64;67.37;99936.97;2100530;83;28854;-67
2022/01/08 08:15:52;;;;;;;23.92;14.07;;;;;;;1.64;67.30;99934.77;2097430;84;31037;-64
2022/01/08 08:18:56;;;;;;;26.05;14.47;;;;;;;1.64;67.32;99933.02;2101715;83;34285;-67
2022/01/08 08:21:58;;;;;;;24.87;13.70;;;;;;;1.66;67.33;99936.93;2097448;84;29236;-70
2022/01/08 08:25:00;;;;;;;20.23;13.45;;;;;;;1.66;67.34;99942.21;2098498;84;27658;-68
2022/01/08 08:28:05;;;;;;;22.85;13.60;;;;;;;1.69;67.35;99938.63;2099895;83;29721;-70
2022/01/08 08:31:07;;;;;;;15.13;9.83;;;;;;;1.71;67.36;99939.48;2097451;84;33126;-65
2022/01/08 08:34:09;;;;;;;23.30;14.00;;;;;;;1.76;67.40;99938.48;2101300;83;33361;-69
2022/01/08 08:37:11;;;;;;;24.50;14.53;;;;;;;1.77;67.23;99933.63;2100786;83;30268;-67
2022/01/08 08:40:15;;;;;;;26.10;15.05;;;;;;;1.80;67.27;99934.89;2101539;83;27720;-67
2022/01/08 08:43:16;;;;;;;27.58;15.40;;;;;;;1.82;67.32;99937.05;2091981;84;28725;-67
2022/01/08 08:46:18;;;;;;;24.75;15.50;;;;;;;1.90;67.39;99933.41;2093198;84;31123;-73
2022/01/08 08:49:20;;;;;;;26.85;15.68;;;;;;;1.99;67.44;99932.35;2089902;84;33641;-76
2022/01/08 08:52:23;;;;;;;27.87;16.02;;;;;;;2.11;67.49;99926.80;2088088;84;29339;-64
2022/01/08 08:55:25;;;;;;;26.15;14.90;;;;;;;2.22;67.46;99930.55;2093772;84;27750;-69
2022/01/08 08:58:27;;;;;;;25.82;15.72;;;;;;;2.31;67.30;99922.88;2099195;83;28887;-67
2022/01/08 09:01:29;;;;;;;24.95;15.35;;;;;;;2.37;67.18;99925.36;2092179;83;31807;-68
2022/01/08 09:04:30;;;;;;;35.28;16.07;;;;;;;2.44;67.13;99926.98;2084189;84;33170;-70
2022/01/08 09:07:37;;;;;;;24.75;15.45;;;;;;;2.51;67.03;99927.71;2088735;84;29281;-72
2022/01/08 09:10:36;;;;;;;26.90;16.37;;;;;;;2.57;67.05;99929.77;2092284;84;27694;-73
2022/01/08 09:13:38;;;;;;;32.40;17.32;;;;;;;2.62;67.02;99924.36;2096680;83;28634;-70
2022/01/08 09:16:45;;;;;;;32.10;17.62;;;;;;;2.70;66.94;99927.72;2092161;84;31011;-65
2022/01/08 09:19:47;;;;;;;31.57;18.32;;;;;;;2.78;66.88;99926.21;2094082;84;32954;-65
2022/01/08 09:22:48;;;;;;;35.92;19.02;;;;;;;2.85;66.87;99930.90;2094994;84;29347;-64
2022/01/08 09:25:50;;;;;;;37.80;20.45;;;;;;;2.92;66.90;99935.59;2092633;83;28282;-65
2022/01/08 09:28:52;;;;;;;36.25;20.77;;;;;;;2.97;66.69;99931.92;2100806;83;28687;-68
2022/01/08 09:31:54;;;;;;;31.40;19.12;;;;;;;2.99;66.56;99933.19;2078770;83;31040;-63
2022/01/08 09:34:56;;;;;;;36.95;19.90;;;;;;;3.01;66.50;99922.12;2095659;83;33727;-67
2022/01/08 09:37:57;;;;;;;33.70;18.85;;;;;;;3.06;66.63;99922.88;2089549;83;29321;-64
2022/01/08 09:40:59;;;;;;;29.32;17.73;;;;;;;3.14;66.68;99927.98;2099806;83;27646;-67
2022/01/08 09:44:01;;;;;;;34.65;18.12;;;;;;;3.24;66.49;99925.51;2087889;83;28686;-70
2022/01/08 09:47:04;;;;;;;28.95;17.77;;;;;;;3.33;66.41;99930.58;2096462;83;31236;-66
2022/01/08 09:50:08;;;;;;;33.10;18.67;;;;;;;3.43;66.40;99929.01;2087962;85;32982;-73
2022/01/08 09:53:10;;;;;;;29.55;18.30;;;;;;;3.49;66.31;99927.53;2087624;85;29350;-68
2022/01/08 09:56:13;;;;;;;42.65;23.20;;;;;;;3.58;66.39;99933.05;2086568;83;27741;-68
2022/01/08 09:59:16;;;;;;;59.27;30.00;;;;;;;3.67;66.43;99932.78;2097422;83;28675;-67
2022/01/08 10:02:23;;;;;;;125.00;69.40;;;;;;;3.75;66.09;99932.56;2059241;85;31038;-67
2022/01/08 10:05:24;;;;;;;86.80;45.65;;;;;;;3.79;66.06;99926.28;2033804;85;32956;-67
2022/01/08 10:08:28;;;;;;;78.40;38.73;;;;;;;3.83;66.14;99929.27;2040173;87;29372;-72
2022/01/08 10:11:31;;;;;;;72.60;34.53;;;;;;;3.89;66.04;99925.10;2027957;85;28179;-70
2022/01/08 10:17:13;;;;;;;109.67;49.35;;;;;;;3.90;65.74;99928.64;2062125;85;28666;-67
2022/01/08 10:17:45;;;;;;;51.40;24.30;;;;;;;3.90;65.67;99922.02;2070823;85;31026;-68
2022/01/08 10:20:50;;;;;;;46.55;27.48;;;;;;;3.92;65.61;99916.22;2073363;85;33824;-69
2022/01/08 10:24:03;;;;;;;49.27;25.32;;;;;;;3.93;65.54;99920.61;2042832;85;29393;-67
2022/01/08 10:27:07;;;;;;;101.87;50.52;;;;;;;3.97;65.54;99924.03;2052287;85;28415;-72
2022/01/08 10:30:12;;;;;;;87.62;44.50;;;;;;;4.01;65.60;99922.56;2026827;85;28683;-70
2022/01/08 10:33:13;;;;;;;;;;;;;;;4.06;65.60;99913.15;2055189;85;31841;-69
2022/01/08 10:36:20;;;;;;;89.32;46.18;;;;;;;4.14;65.77;99908.98;2030360;85;32938;-69
2022/01/08 10:39:38;;;;;;;69.40;34.18;;;;;;;4.20;65.54;99903.47;2028687;85;29345;-67
2022/01/08 10:42:40;;;;;;;70.32;37.30;;;;;;;4.26;65.71;99898.85;2072363;85;27677;-69
2022/01/08 10:45:41;;;;;;;83.42;46.23;;;;;;;4.33;65.49;99898.68;2023632;85;28708;-69
2022/01/08 10:48:48;;;;;;;145.40;62.95;;;;;;;4.41;65.66;99902.84;2070852;85;31837;-69
2022/01/08 10:51:50;;;;;;;67.80;34.88;;;;;;;4.48;65.57;99902.19;2071904;85;32975;-68
2022/01/08 10:54:58;;;;;;;82.67;46.48;;;;;;;4.55;65.46;99898.41;2072562;85;29351;-69
2022/01/08 10:58:00;;;;;;;65.42;36.42;;;;;;;4.61;65.30;99897.81;2070534;85;27733;-71
2022/01/08 11:01:01;;;;;;;97.65;54.13;;;;;;;4.70;65.25;99892.23;2069324;85;28831;-70
2022/01/08 11:04:05;;;;;;;51.45;29.27;;;;;;;4.77;65.17;99886.27;2034097;85;31045;-69
2022/01/08 11:07:28;;;;;;;63.90;32.93;;;;;;;4.86;64.87;99887.28;2065691;85;33611;-68
2022/01/08 11:10:31;;;;;;;74.60;37.70;;;;;;;4.92;64.58;99882.22;2023688;87;29370;-70
2022/01/08 11:13:33;;;;;;;55.23;26.75;;;;;;;4.99;64.51;99870.50;2027418;87;27662;-70
2022/01/08 11:16:36;;;;;;;48.85;28.62;;;;;;;5.09;64.48;99867.08;2030647;85;28089;-70
2022/01/08 11:19:39;;;;;;;26.25;15.18;;;;;;;5.21;64.21;99867.12;2040920;87;31836;-70
2022/01/08 11:22:45;;;;;;;38.00;22.98;;;;;;;5.29;63.78;99865.94;2016745;86;33155;-69
2022/01/08 11:25:49;;;;;;;21.93;13.15;;;;;;;5.35;63.40;99863.52;2080007;83;29324;-69
2022/01/08 11:28:53;;;;;;;27.27;16.73;;;;;;;5.41;63.53;99861.95;2078415;83;27713;-70
2022/01/08 11:31:56;;;;;;;19.37;12.15;;;;;;;5.52;63.42;99855.41;2076394;83;28683;-70
2022/01/08 11:35:00;;;;;;;21.70;13.05;;;;;;;5.59;63.21;99857.79;2078381;83;31122;-69
2022/01/08 11:38:04;;;;;;;19.37;11.78;;;;;;;5.68;63.08;99853.05;2107923;83;33051;-74
2022/01/08 11:41:06;;;;;;;20.32;13.58;;;;;;;5.78;62.99;99843.83;2074603;83;29362;-67
2022/01/08 11:44:08;;;;;;;19.17;13.10;;;;;;;5.87;62.62;99837.30;2080119;84;27631;-68
2022/01/08 11:47:10;;;;;;;17.62;12.15;;;;;;;5.95;62.67;99832.55;2087588;84;28710;-65
2022/01/08 11:50:13;;;;;;;19.85;12.68;;;;;;;6.04;62.46;99834.87;2078122;84;31860;-68
2022/01/08 11:53:27;;;;;;;33.08;19.75;;;;;;;6.08;62.24;99827.19;2086919;84;33866;-68
2022/01/08 11:56:38;;;;;;;30.52;19.62;;;;;;;6.14;62.18;99818.09;2069887;85;29406;-67
2022/01/08 11:59:40;;;;;;;25.50;15.75;;;;;;;6.17;61.97;99823.78;2019775;88;27729;-68
2022/01/08 12:02:43;;;;;;;23.87;15.30;;;;;;;6.16;61.70;99820.23;2058197;86;28735;-69
2022/01/08 12:05:45;;;;;;;19.10;13.55;;;;;;;6.16;61.42;99809.59;2058424;86;31048;-71
2022/01/08 12:09:07;;;;;;;30.00;17.90;;;;;;;6.12;61.17;99804.47;2035953;86;33158;-69
2022/01/08 12:12:04;;;;;;;36.63;21.00;;;;;;;6.04;61.28;99803.44;2019425;86;29332;-71
2022/01/08 12:15:06;;;;;;;33.75;21.68;;;;;;;5.99;61.38;99797.39;2058407;85;27629;-70
2022/01/08 12:18:11;;;;;;;34.48;21.30;;;;;;;5.93;61.31;99795.84;2058481;86;28097;-71
2022/01/08 12:21:29;;;;;;;37.48;23.62;;;;;;;5.89;61.36;99796.88;1985217;88;31052;-69
2022/01/08 12:24:32;;;;;;;28.98;18.92;;;;;;;5.83;61.23;99787.35;1985505;88;33021;-68
2022/01/08 12:27:40;;;;;;;28.52;19.17;;;;;;;5.78;61.03;99783.55;1987211;88;29323;-70
2022/01/08 12:30:42;;;;;;;56.65;38.85;;;;;;;5.75;61.05;99788.97;1987139;89;28217;-69
2022/01/08 12:33:44;;;;;;;108.52;66.28;;;;;;;5.67;60.60;99780.89;1987154;87;28709;-68
2022/01/08 12:37:05;;;;;;;67.80;45.20;;;;;;;5.53;60.50;99774.78;1987221;89;31068;-67
2022/01/08 12:40:10;;;;;;;103.55;59.30;;;;;;;5.40;60.49;99780.52;1987117;89;33107;-68
2022/01/08 12:43:37;;;;;;;98.27;51.95;;;;;;;5.31;60.73;99768.92;2028810;86;34821;-67
2022/01/08 12:46:39;;;;;;;75.00;42.60;;;;;;;5.24;60.84;99768.73;2095921;84;27807;-69
2022/01/08 12:49:46;;;;;;;108.50;62.65;;;;;;;5.09;60.83;99763.05;2068370;84;28681;-68
2022/01/08 12:53:18;;;;;;;54.03;36.50;;;;;;;5.02;60.83;99760.23;2055740;86;31084;-68
2022/01/08 12:56:20;;;;;;;70.08;42.30;;;;;;;4.92;60.81;99757.47;2062075;86;33778;-69
2022/01/08 12:59:32;;;;;;;72.20;46.83;;;;;;;4.81;60.99;99756.08;2061813;86;29565;-69
2022/01/08 13:02:34;;;;;;;80.30;49.75;;;;;;;4.73;61.01;99758.58;2062124;86;27636;-68
2022/01/08 13:05:37;;;;;;;33.35;21.35;;;;;;;4.66;60.90;99760.11;2062078;86;28732;-69
2022/01/08 13:08:43;;;;;;;42.67;26.12;;;;;;;4.61;61.04;99755.44;2061860;86;31077;-69
2022/01/08 13:11:46;;;;;;;38.98;24.18;;;;;;;4.58;61.07;99754.21;2062474;86;32400;-69
2022/01/08 13:15:02;;;;;;;29.05;18.67;;;;;;;4.55;61.04;99747.20;2063379;86;29331;-70
2022/01/08 13:18:24;;;;;;;24.52;14.40;;;;;;;4.56;60.83;99748.09;2063569;85;27666;-68
2022/01/08 13:21:32;;;;;;;27.02;16.65;;;;;;;4.55;61.09;99761.79;2063649;86;28677;-68
2022/01/08 13:24:43;;;;;;;22.02;15.18;;;;;;;4.54;60.94;99752.13;2062333;86;32000;-69
2022/01/08 13:27:49;;;;;;;24.60;17.42;;;;;;;4.54;60.75;99753.90;2063426;86;33044;-70
2022/01/08 13:30:53;;;;;;;20.57;13.78;;;;;;;4.52;61.04;99752.64;2063537;86;29446;-70
2022/01/08 13:33:57;;;;;;;19.17;12.25;;;;;;;4.48;60.78;99756.74;2063810;86;27715;-70
2022/01/08 13:37:03;;;;;;;23.83;17.87;;;;;;;4.38;60.66;99751.77;2063819;86;28687;-68
2022/01/08 13:40:08;;;;;;;22.52;11.78;;;;;;;4.30;60.85;99751.60;2063888;84;31061;-70
2022/01/08 13:43:10;;;;;;;23.60;12.82;;;;;;;4.22;60.87;99754.50;2097336;84;32975;-70
2022/01/08 13:46:11;;;;;;;26.80;17.80;;;;;;;4.13;61.00;99754.34;2100363;83;29360;-70
2022/01/08 13:49:14;;;;;;;27.82;17.40;;;;;;;4.07;61.13;99755.41;2100181;83;28241;-69
2022/01/08 13:52:22;;;;;;;23.77;14.68;;;;;;;4.03;61.11;99755.09;2100237;84;28836;-71
2022/01/08 13:55:30;;;;;;;23.20;12.98;;;;;;;3.98;61.14;99752.17;2100020;83;31865;-68
2022/01/08 13:58:32;;;;;;;29.72;16.95;;;;;;;3.90;61.34;99753.73;2099614;84;32951;-69
2022/01/08 14:01:46;;;;;;;52.00;23.67;;;;;;;3.85;61.39;99742.41;2100358;83;30089;-70
2022/01/08 14:04:53;;;;;;;38.67;19.35;;;;;;;3.79;61.47;99744.36;2101504;83;27784;-70
2022/01/08 14:07:52;;;;;;;91.12;54.40;;;;;;;3.73;61.47;99743.20;2099613;83;28678;-70
2022/01/08 14:11:01;;;;;;;50.25;25.90;;;;;;;3.68;61.59;99740.29;2099606;84;31008;-70
2022/01/08 14:14:18;;;;;;;37.48;20.20;;;;;;;3.64;61.68;99736.88;2100466;84;33730;-67
2022/01/08 14:17:19;;;;;;;29.10;17.90;;;;;;;3.58;61.63;99744.52;2100215;84;29561;-71
2022/01/08 14:20:24;;;;;;;39.18;21.40;;;;;;;3.51;61.63;99744.31;2100663;83;28428;-71
2022/01/08 14:23:29;;;;;;;42.98;19.98;;;;;;;3.40;61.61;99741.98;2100588;84;28666;-69
2022/01/08 14:26:31;;;;;;;59.58;28.92;;;;;;;3.30;61.57;99745.81;2100382;84;31076;-66
2022/01/08 14:29:40;;;;;;;40.58;21.27;;;;;;;3.21;61.72;99747.38;2100536;84;33049;-68